Observation data for Haskell on 08/13/2019      Previous  Date  Next       Current Mesonet Observations  Soil Data  Daily Summary Page  Observations in Plain Language
KHA1 130500Z 14008KT 32/18 A2983 RMK A01 T03150175  RH  045%=      5-min Rain = 0
KHA1 130505Z 14008KT 31/17 A2983 RMK A01 T03140174  RH  046%=      5-min Rain = 0
KHA1 130510Z 14008KT 31/17 A2983 RMK A01 T03130174  RH  046%=      5-min Rain = 0
KHA1 130515Z 13008KT 31/17 A2983 RMK A01 T03120174  RH  046%=      5-min Rain = 0
KHA1 130520Z 13008KT 31/17 A2983 RMK A01 T03120174  RH  046%=      5-min Rain = 0
KHA1 130525Z 13008KT 31/17 A2983 RMK A01 T03110174  RH  046%=      5-min Rain = 0
KHA1 130530Z 13007G12KT 31/17 A2984 RMK A01 T03100174  RH  047%=      5-min Rain = 0
KHA1 130535Z 13008KT 31/17 A2984 RMK A01 T03100174  RH  046%=      5-min Rain = 0
KHA1 130540Z 13007KT 31/17 A2984 RMK A01 T03090174  RH  047%=      5-min Rain = 0
KHA1 130545Z 14007KT 31/17 A2984 RMK A01 T03080173  RH  047%=      5-min Rain = 0
KHA1 130550Z 14006KT 31/17 A2985 RMK A01 T03060173  RH  047%=      5-min Rain = 0
KHA1 130555Z 14006KT 31/17 A2985 RMK A01 T03050173  RH  047%=      5-min Rain = 0
KHA1 130600Z 14006KT 30/17 A2985 RMK A01 T03040172  RH  048%=      5-min Rain = 0
KHA1 130605Z 14006KT 30/17 A2985 RMK A01 T03030172  RH  048%=      5-min Rain = 0
KHA1 130610Z 14006KT 30/17 A2985 RMK A01 T03030172  RH  048%=      5-min Rain = 0
KHA1 130615Z 14006KT 30/17 A2985 RMK A01 T03020171  RH  048%=      5-min Rain = 0
KHA1 130620Z 14006KT 30/17 A2985 RMK A01 T03010170  RH  048%=      5-min Rain = 0
KHA1 130625Z 15006KT 30/17 A2985 RMK A01 T03000169  RH  048%=      5-min Rain = 0
KHA1 130630Z 15007G12KT 30/17 A2985 RMK A01 T03000168  RH  047%=      5-min Rain = 0
KHA1 130635Z 15007KT 30/17 A2985 RMK A01 T03020166  RH  046%=      5-min Rain = 0
KHA1 130640Z 16007KT 30/17 A2985 RMK A01 T03020165  RH  046%=      5-min Rain = 0
KHA1 130645Z 15007G12KT 30/16 A2985 RMK A01 T03010164  RH  046%=      5-min Rain = 0
KHA1 130650Z 16008KT 30/16 A2985 RMK A01 T03000163  RH  046%=      5-min Rain = 0
KHA1 130655Z 16006KT 30/16 A2985 RMK A01 T03000162  RH  046%=      5-min Rain = 0
KHA1 130700Z 16007KT 30/16 A2985 RMK A01 T03010161  RH  045%=      5-min Rain = 0
KHA1 130705Z 16008KT 30/16 A2985 RMK A01 T03020160  RH  045%=      5-min Rain = 0
KHA1 130710Z 16008KT 30/16 A2984 RMK A01 T03020159  RH  044%=      5-min Rain = 0
KHA1 130715Z 16007KT 30/16 A2984 RMK A01 T03000160  RH  045%=      5-min Rain = 0
KHA1 130720Z 16007G12KT 30/16 A2984 RMK A01 T03000159  RH  045%=      5-min Rain = 0
KHA1 130725Z 16007KT 30/16 A2984 RMK A01 T03000159  RH  045%=      5-min Rain = 0
KHA1 130730Z 16008KT 30/16 A2984 RMK A01 T02990158  RH  045%=      5-min Rain = 0
KHA1 130735Z 16008KT 30/16 A2984 RMK A01 T02990158  RH  044%=      5-min Rain = 0
KHA1 130740Z 16007KT 30/16 A2984 RMK A01 T02990158  RH  045%=      5-min Rain = 0
KHA1 130745Z 16006KT 30/16 A2984 RMK A01 T02980158  RH  045%=      5-min Rain = 0
KHA1 130750Z 16007KT 30/16 A2984 RMK A01 T02970158  RH  045%=      5-min Rain = 0
KHA1 130755Z 15006KT 30/16 A2984 RMK A01 T02970158  RH  045%=      5-min Rain = 0
KHA1 130800Z 15006KT 30/16 A2984 RMK A01 T02960158  RH  045%=      5-min Rain = 0
KHA1 130805Z 15005KT 29/16 A2984 RMK A01 T02940158  RH  046%=      5-min Rain = 0
KHA1 130810Z 15005KT 29/16 A2984 RMK A01 T02940158  RH  046%=      5-min Rain = 0
KHA1 130815Z 15004KT 29/16 A2984 RMK A01 T02920159  RH  046%=      5-min Rain = 0
KHA1 130820Z 14003KT 29/16 A2984 RMK A01 T02900159  RH  047%=      5-min Rain = 0
KHA1 130825Z 12002KT 29/16 A2985 RMK A01 T02890159  RH  047%=      5-min Rain = 0
KHA1 130830Z 03005G11KT 28/16 A2986 RMK A01 T02830160  RH  050%=      5-min Rain = 0
KHA1 130835Z 01010KT 27/17 A2986 RMK A01 T02690165  RH  056%=      5-min Rain = 0
KHA1 130840Z 02009KT 27/17 A2986 RMK A01 T02670165  RH  056%=      5-min Rain = 0
KHA1 130845Z 03004KT 28/16 A2986 RMK A01 T02750164  RH  053%=      5-min Rain = 0
KHA1 130850Z 04002KT 28/16 A2986 RMK A01 T02770163  RH  052%=      5-min Rain = 0
KHA1 130855Z 07001KT 28/16 A2986 RMK A01 T02830164  RH  051%=      5-min Rain = 0
KHA1 130900Z 36007G13KT 28/17 A2987 RMK A01 T02790169  RH  054%=      5-min Rain = 0
KHA1 130905Z 02010KT 28/17 A2987 RMK A01 T02750168  RH  055%=      5-min Rain = 0
KHA1 130910Z 03009KT 28/17 A2987 RMK A01 T02830165  RH  051%=      5-min Rain = 0
KHA1 130915Z 05005KT 29/17 A2987 RMK A01 T02890165  RH  049%=      5-min Rain = 0
KHA1 130920Z 12004KT 29/17 A2986 RMK A01 T02900167  RH  050%=      5-min Rain = 0
KHA1 130925Z 13004KT 29/17 A2986 RMK A01 T02870167  RH  051%=      5-min Rain = 0
KHA1 130930Z 11004KT 29/17 A2986 RMK A01 T02870168  RH  051%=      5-min Rain = 0
KHA1 130935Z 08004KT 29/17 A2987 RMK A01 T02870167  RH  051%=      5-min Rain = 0
KHA1 130940Z 06005KT 29/17 A2987 RMK A01 T02870166  RH  051%=      5-min Rain = 0
KHA1 130945Z 05005KT 29/17 A2988 RMK A01 T02860167  RH  051%=      5-min Rain = 0
KHA1 130950Z 06005KT 29/17 A2988 RMK A01 T02860168  RH  051%=      5-min Rain = 0
KHA1 130955Z 06005KT 28/17 A2988 RMK A01 T02840168  RH  052%=      5-min Rain = 0
KHA1 131000Z 05005KT 28/17 A2988 RMK A01 T02840169  RH  052%=      5-min Rain = 0
KHA1 131005Z 05005KT 28/17 A2989 RMK A01 T02820169  RH  053%=      5-min Rain = 0
KHA1 131010Z 06006KT 28/17 A2989 RMK A01 T02800169  RH  053%=      5-min Rain = 0
KHA1 131015Z 07007KT 28/17 A2989 RMK A01 T02800170  RH  054%=      5-min Rain = 0
KHA1 131020Z 07006KT 28/17 A2989 RMK A01 T02780170  RH  055%=      5-min Rain = 0
KHA1 131025Z 07006KT 28/17 A2989 RMK A01 T02760170  RH  055%=      5-min Rain = 0
KHA1 131030Z 07007KT 28/17 A2989 RMK A01 T02760170  RH  055%=      5-min Rain = 0
KHA1 131035Z 07006KT 28/17 A2989 RMK A01 T02750171  RH  056%=      5-min Rain = 0
KHA1 131040Z 07006KT 27/17 A2989 RMK A01 T02730171  RH  056%=      5-min Rain = 0
KHA1 131045Z 07006KT 27/17 A299 RMK A01 T02710171  RH  057%=      5-min Rain = 0
KHA1 131050Z 07005KT 27/17 A299 RMK A01 T02700170  RH  057%=      5-min Rain = 0
KHA1 131055Z 08006KT 27/17 A299 RMK A01 T02690171  RH  058%=      5-min Rain = 0
KHA1 131100Z 08005KT 27/17 A299 RMK A01 T02690171  RH  058%=      5-min Rain = 0
KHA1 131105Z 06007KT 27/17 A299 RMK A01 T02690171  RH  058%=      5-min Rain = 0
KHA1 131110Z 07006KT 27/17 A299 RMK A01 T02670171  RH  059%=      5-min Rain = 0
KHA1 131115Z 07006KT 27/17 A2991 RMK A01 T02660172  RH  059%=      5-min Rain = 0
KHA1 131120Z 07008KT 27/17 A2991 RMK A01 T02660172  RH  059%=      5-min Rain = 0
KHA1 131125Z 07009KT 27/17 A2991 RMK A01 T02670173  RH  059%=      5-min Rain = 0
KHA1 131130Z 07008KT 27/17 A2991 RMK A01 T02660173  RH  060%=      5-min Rain = 0
KHA1 131135Z 07008KT 27/17 A2991 RMK A01 T02650174  RH  060%=      5-min Rain = 0
KHA1 131140Z 07007KT 26/18 A2991 RMK A01 T02640176  RH  061%=      5-min Rain = 0
KHA1 131145Z 07006KT 26/18 A2991 RMK A01 T02620177  RH  063%=      5-min Rain = 0
KHA1 131150Z 06007KT 26/18 A2991 RMK A01 T02610179  RH  064%=      5-min Rain = 0
KHA1 131155Z 06007KT 26/18 A2991 RMK A01 T02600181  RH  065%=      5-min Rain = 0
KHA1 131200Z 06007KT 26/18 A2991 RMK A01 T02590184  RH  067%=      5-min Rain = 0
KHA1 131205Z 05008KT 26/19 A2992 RMK A01 T02580185  RH  068%=      5-min Rain = 0
KHA1 131210Z 05008KT 26/19 A2992 RMK A01 T02580187  RH  068%=      5-min Rain = 0
KHA1 131215Z 05008KT 26/19 A2992 RMK A01 T02570188  RH  069%=      5-min Rain = 0
KHA1 131220Z 05008KT 26/19 A2993 RMK A01 T02560189  RH  070%=      5-min Rain = 0
KHA1 131225Z 04009KT 26/19 A2993 RMK A01 T02550189  RH  071%=      5-min Rain = 0
KHA1 131230Z 04010KT 25/19 A2993 RMK A01 T02540189  RH  071%=      5-min Rain = 0
KHA1 131235Z 04010KT 26/19 A2993 RMK A01 T02550189  RH  071%=      5-min Rain = 0
KHA1 131240Z 04008KT 25/19 A2993 RMK A01 T02540190  RH  071%=      5-min Rain = 0
KHA1 131245Z 05009G14KT 25/19 A2993 RMK A01 T02540190  RH  071%=      5-min Rain = 0
KHA1 131250Z 04008G14KT 25/19 A2994 RMK A01 T02540190  RH  072%=      5-min Rain = 0
KHA1 131255Z 04011KT 26/19 A2994 RMK A01 T02550190  RH  071%=      5-min Rain = 0
KHA1 131300Z 05010KT 26/19 A2994 RMK A01 T02560191  RH  071%=      5-min Rain = 0
KHA1 131305Z 05009KT 26/19 A2994 RMK A01 T02570192  RH  071%=      5-min Rain = 0
KHA1 131310Z 05009KT 26/19 A2994 RMK A01 T02580192  RH  071%=      5-min Rain = 0
KHA1 131315Z 05009KT 26/19 A2995 RMK A01 T02570192  RH  071%=      5-min Rain = 0
KHA1 131320Z 05010KT 26/19 A2995 RMK A01 T02570193  RH  071%=      5-min Rain = 0
KHA1 131325Z 06010G15KT 26/19 A2995 RMK A01 T02570193  RH  072%=      5-min Rain = 0
KHA1 131330Z 06010G16KT 26/19 A2995 RMK A01 T02600194  RH  070%=      5-min Rain = 0
KHA1 131335Z 07011KT 26/19 A2995 RMK A01 T02620193  RH  070%=      5-min Rain = 0
KHA1 131340Z 07008G13KT 26/19 A2995 RMK A01 T02630193  RH  069%=      5-min Rain = 0
KHA1 131345Z 07010KT 27/19 A2995 RMK A01 T02670193  RH  067%=      5-min Rain = 0
KHA1 131350Z 07010KT 27/19 A2995 RMK A01 T02690193  RH  067%=      5-min Rain = 0
KHA1 131355Z 07009G14KT 27/19 A2995 RMK A01 T02690192  RH  066%=      5-min Rain = 0
KHA1 131400Z 07008KT 27/19 A2995 RMK A01 T02730193  RH  065%=      5-min Rain = 0
KHA1 131405Z 08008KT 28/19 A2995 RMK A01 T02770193  RH  064%=      5-min Rain = 0
KHA1 131410Z 07009KT 28/19 A2995 RMK A01 T02770192  RH  063%=      5-min Rain = 0
KHA1 131415Z 07009KT 28/19 A2995 RMK A01 T02770192  RH  063%=      5-min Rain = 0
KHA1 131420Z 07008KT 28/19 A2995 RMK A01 T02780192  RH  063%=      5-min Rain = 0
KHA1 131425Z 07008KT 28/19 A2995 RMK A01 T02830193  RH  062%=      5-min Rain = 0
KHA1 131430Z 08007KT 29/19 A2995 RMK A01 T02860193  RH  061%=      5-min Rain = 0
KHA1 131435Z 08007KT 29/19 A2995 RMK A01 T02890194  RH  060%=      5-min Rain = 0
KHA1 131440Z 08006KT 29/20 A2995 RMK A01 T02910195  RH  059%=      5-min Rain = 0
KHA1 131445Z 10006KT 29/20 A2995 RMK A01 T02920195  RH  059%=      5-min Rain = 0
KHA1 131450Z 10006KT 29/20 A2995 RMK A01 T02940195  RH  059%=      5-min Rain = 0
KHA1 131455Z 11006KT 30/20 A2995 RMK A01 T02960196  RH  058%=      5-min Rain = 0
KHA1 131500Z 11008KT 30/20 A2995 RMK A01 T02950196  RH  059%=      5-min Rain = 0
KHA1 131505Z 10005G11KT 30/20 A2995 RMK A01 T02990197  RH  058%=      5-min Rain = 0
KHA1 131510Z 09006KT 30/20 A2995 RMK A01 T03000197  RH  057%=      5-min Rain = 0
KHA1 131515Z 09005KT 30/20 A2996 RMK A01 T03030198  RH  057%=      5-min Rain = 0
KHA1 131520Z 11006KT 30/20 A2996 RMK A01 T03030198  RH  056%=      5-min Rain = 0
KHA1 131525Z 10005KT 31/20 A2996 RMK A01 T03060198  RH  056%=      5-min Rain = 0
KHA1 131530Z 09006KT 31/20 A2996 RMK A01 T03100199  RH  055%=      5-min Rain = 0
KHA1 131535Z 12005KT 31/20 A2997 RMK A01 T03110199  RH  054%=      5-min Rain = 0
KHA1 131540Z 07005KT 31/20 A2997 RMK A01 T03100198  RH  054%=      5-min Rain = 0
KHA1 131545Z 14005KT 31/20 A2997 RMK A01 T03120199  RH  054%=      5-min Rain = 0
KHA1 131550Z 10005G11KT 31/20 A2997 RMK A01 T03140199  RH  053%=      5-min Rain = 0
KHA1 131555Z 10004KT 32/20 A2997 RMK A01 T03160199  RH  053%=      5-min Rain = 0
KHA1 131600Z 10005KT 32/20 A2997 RMK A01 T03180200  RH  053%=      5-min Rain = 0
KHA1 131605Z 08005KT 32/20 A2997 RMK A01 T03200199  RH  052%=      5-min Rain = 0
KHA1 131610Z 11003KT 32/20 A2997 RMK A01 T03200199  RH  052%=      5-min Rain = 0
KHA1 131615Z 08004KT 32/20 A2997 RMK A01 T03240201  RH  051%=      5-min Rain = 0
KHA1 131620Z 06005KT 32/20 A2997 RMK A01 T03240201  RH  051%=      5-min Rain = 0
KHA1 131625Z 05004G9KT 32/20 A2997 RMK A01 T03230201  RH  051%=      5-min Rain = 0
KHA1 131630Z 08004KT 33/20 A2997 RMK A01 T03270203  RH  051%=      5-min Rain = 0
KHA1 131635Z 08005KT 32/20 A2997 RMK A01 T03230200  RH  051%=      5-min Rain = 0
KHA1 131640Z 06007KT 33/20 A2997 RMK A01 T03250202  RH  051%=      5-min Rain = 0
KHA1 131645Z 05007KT 32/20 A2997 RMK A01 T03230202  RH  052%=      5-min Rain = 0
KHA1 131650Z 03004KT 32/20 A2996 RMK A01 T03230204  RH  052%=      5-min Rain = 0
KHA1 131655Z 02004KT 32/21 A2996 RMK A01 T03210210  RH  055%=      5-min Rain = 0
KHA1 131700Z 12005KT 32/20 A2996 RMK A01 T03240204  RH  052%=      5-min Rain = 0
KHA1 131705Z 11006KT 32/20 A2996 RMK A01 T03210203  RH  053%=      5-min Rain = 0
KHA1 131710Z 12006KT 32/21 A2996 RMK A01 T03220206  RH  053%=      5-min Rain = 0
KHA1 131715Z 10005KT 33/21 A2996 RMK A01 T03260205  RH  052%=      5-min Rain = 0
KHA1 131720Z 09005KT 33/21 A2996 RMK A01 T03310207  RH  051%=      5-min Rain = 0
KHA1 131725Z 12005KT 33/21 A2996 RMK A01 T03320207  RH  051%=      5-min Rain = 0
KHA1 131730Z 11004KT 33/21 A2996 RMK A01 T03310206  RH  051%=      5-min Rain = 0
KHA1 131735Z 11003KT 33/21 A2996 RMK A01 T03330206  RH  050%=      5-min Rain = 0
KHA1 131740Z 06003KT 34/21 A2996 RMK A01 T03390205  RH  048%=      5-min Rain = 0
KHA1 131745Z 02004KT 34/21 A2996 RMK A01 T03390206  RH  049%=      5-min Rain = 0
KHA1 131750Z 02005G11KT 34/21 A2996 RMK A01 T03380211  RH  051%=      5-min Rain = 0
KHA1 131755Z 03004KT 35/21 A2996 RMK A01 T03450208  RH  048%=      5-min Rain = 0
KHA1 131800Z 02007KT 34/21 A2996 RMK A01 T03440212  RH  049%=      5-min Rain = 0
KHA1 131805Z 02007KT 34/21 A2996 RMK A01 T03410208  RH  049%=      5-min Rain = 0
KHA1 131810Z 03006G11KT 34/21 A2996 RMK A01 T03410209  RH  049%=      5-min Rain = 0
KHA1 131815Z 01006KT 34/21 A2996 RMK A01 T03420210  RH  049%=      5-min Rain = 0
KHA1 131820Z 01007KT 34/21 A2996 RMK A01 T03420211  RH  049%=      5-min Rain = 0
KHA1 131825Z 01007KT 34/22 A2996 RMK A01 T03410216  RH  051%=      5-min Rain = 0
KHA1 131830Z 35008KT 34/22 A2996 RMK A01 T03350219  RH  054%=      5-min Rain = 0
KHA1 131835Z 34007KT 33/22 A2996 RMK A01 T03320215  RH  054%=      5-min Rain = 0
KHA1 131840Z 36008KT 34/21 A2996 RMK A01 T03360211  RH  051%=      5-min Rain = 0
KHA1 131845Z 03007KT 34/20 A2996 RMK A01 T03420203  RH  047%=      5-min Rain = 0
KHA1 131850Z 03009G14KT 34/20 A2996 RMK A01 T03440203  RH  046%=      5-min Rain = 0
KHA1 131855Z 02007KT 34/20 A2996 RMK A01 T03390204  RH  048%=      5-min Rain = 0
KHA1 131900Z 00006KT 34/21 A2996 RMK A01 T03360207  RH  050%=      5-min Rain = 0
KHA1 131905Z 02008G13KT 34/21 A2996 RMK A01 T03380207  RH  049%=      5-min Rain = 0
KHA1 131910Z 03006KT 35/20 A2996 RMK A01 T03490202  RH  045%=      5-min Rain = 0
KHA1 131915Z 02008KT 35/21 A2996 RMK A01 T03460206  RH  047%=      5-min Rain = 0
KHA1 131920Z 03006KT 34/21 A2996 RMK A01 T03400210  RH  050%=      5-min Rain = 0
KHA1 131925Z 05009G15KT 34/20 A2996 RMK A01 T03430202  RH  046%=      5-min Rain = 0
KHA1 131930Z 07009G15KT 34/20 A2996 RMK A01 T03430203  RH  046%=      5-min Rain = 0
KHA1 131935Z 05011KT 35/20 A2996 RMK A01 T03450203  RH  046%=      5-min Rain = 0
KHA1 131940Z 05011KT 35/20 A2996 RMK A01 T03460204  RH  046%=      5-min Rain = 0
KHA1 131945Z 04012KT 34/20 A2995 RMK A01 T03420203  RH  047%=      5-min Rain = 0
KHA1 131950Z 04011KT 34/20 A2995 RMK A01 T03370202  RH  048%=      5-min Rain = 0
KHA1 131955Z 06011G16KT 34/20 A2995 RMK A01 T03370203  RH  048%=      5-min Rain = 0
KHA1 132000Z 06011G16KT 34/20 A2995 RMK A01 T03400204  RH  048%=      5-min Rain = 0
KHA1 132005Z 06012G19KT 35/20 A2995 RMK A01 T03450204  RH  046%=      5-min Rain = 0
KHA1 132010Z 05011G17KT 35/20 A2995 RMK A01 T03470203  RH  046%=      5-min Rain = 0
KHA1 132015Z 05012G17KT 34/20 A2995 RMK A01 T03390201  RH  047%=      5-min Rain = 0
KHA1 132020Z 05010KT 34/20 A2995 RMK A01 T03360200  RH  048%=      5-min Rain = 0
KHA1 132025Z 05011KT 34/20 A2995 RMK A01 T03400200  RH  047%=      5-min Rain = 0
KHA1 132030Z 06009G14KT 34/20 A2995 RMK A01 T03390199  RH  046%=      5-min Rain = 0
KHA1 132035Z 06011G18KT 34/20 A2995 RMK A01 T03370198  RH  047%=      5-min Rain = 0
KHA1 132040Z 05011KT 34/20 A2995 RMK A01 T03440199  RH  045%=      5-min Rain = 0
KHA1 132045Z 04011KT 34/20 A2995 RMK A01 T03420200  RH  046%=      5-min Rain = 0
KHA1 132050Z 04010KT 35/20 A2994 RMK A01 T03460201  RH  045%=      5-min Rain = 0
KHA1 132055Z 03010G17KT 35/20 A2994 RMK A01 T03470202  RH  045%=      5-min Rain = 0
KHA1 132100Z 05011KT 35/20 A2994 RMK A01 T03520200  RH  043%=      5-min Rain = 0
KHA1 132105Z 05009KT 35/20 A2994 RMK A01 T03470195  RH  043%=      5-min Rain = 0
KHA1 132110Z 05009G15KT 35/20 A2994 RMK A01 T03480197  RH  044%=      5-min Rain = 0
KHA1 132115Z 02011KT 35/20 A2993 RMK A01 T03490202  RH  045%=      5-min Rain = 0
KHA1 132120Z 03011KT 36/20 A2993 RMK A01 T03550199  RH  043%=      5-min Rain = 0
KHA1 132125Z 03011KT 35/20 A2993 RMK A01 T03490197  RH  043%=      5-min Rain = 0
KHA1 132130Z 02008G13KT 35/20 A2993 RMK A01 T03520197  RH  043%=      5-min Rain = 0
KHA1 132135Z 02009G14KT 35/20 A2993 RMK A01 T03510196  RH  043%=      5-min Rain = 0
KHA1 132140Z 02009G14KT 35/21 A2992 RMK A01 T03510206  RH  045%=      5-min Rain = 0
KHA1 132145Z 01008KT 35/20 A2992 RMK A01 T03510203  RH  045%=      5-min Rain = 0
KHA1 132150Z 03008G14KT 35/20 A2992 RMK A01 T03520199  RH  043%=      5-min Rain = 0
KHA1 132155Z 04009G14KT 36/19 A2992 RMK A01 T03560194  RH  041%=      5-min Rain = 0
KHA1 132200Z 03008G14KT 36/19 A2992 RMK A01 T03550194  RH  041%=      5-min Rain = 0
KHA1 132205Z 03009KT 36/20 A2992 RMK A01 T03550198  RH  042%=      5-min Rain = 0
KHA1 132210Z 03007G15KT 36/20 A2991 RMK A01 T03570200  RH  042%=      5-min Rain = 0
KHA1 132215Z 04008KT 36/20 A2991 RMK A01 T03560195  RH  041%=      5-min Rain = 0
KHA1 132220Z 02007G13KT 36/21 A2991 RMK A01 T03560207  RH  045%=      5-min Rain = 0
KHA1 132225Z 03010G15KT 36/20 A2991 RMK A01 T03550200  RH  043%=      5-min Rain = 0
KHA1 132230Z 04007KT 36/20 A2991 RMK A01 T03570198  RH  042%=      5-min Rain = 0
KHA1 132235Z 03008G13KT 36/20 A2991 RMK A01 T03570198  RH  042%=      5-min Rain = 0
KHA1 132240Z 03008G13KT 36/20 A2991 RMK A01 T03560202  RH  043%=      5-min Rain = 0
KHA1 132245Z 06007KT 36/20 A2991 RMK A01 T03580198  RH  042%=      5-min Rain = 0
KHA1 132250Z 05007G14KT 36/20 A2991 RMK A01 T03580199  RH  042%=      5-min Rain = 0
KHA1 132255Z 04010G17KT 36/20 A2991 RMK A01 T03570199  RH  042%=      5-min Rain = 0
KHA1 132300Z 05009KT 36/20 A2991 RMK A01 T03580199  RH  042%=      5-min Rain = 0
KHA1 132305Z 04009KT 36/20 A2991 RMK A01 T03560200  RH  043%=      5-min Rain = 0
KHA1 132310Z 04010KT 36/20 A2991 RMK A01 T03590201  RH  042%=      5-min Rain = 0
KHA1 132315Z 05007KT 36/20 A2991 RMK A01 T03570201  RH  043%=      5-min Rain = 0
KHA1 132320Z 06008G14KT 36/20 A2991 RMK A01 T03600202  RH  042%=      5-min Rain = 0
KHA1 132325Z 04009KT 36/20 A299 RMK A01 T03590203  RH  043%=      5-min Rain = 0
KHA1 132330Z 05009G14KT 36/20 A299 RMK A01 T03560203  RH  044%=      5-min Rain = 0
KHA1 132335Z 06010KT 36/20 A299 RMK A01 T03560203  RH  044%=      5-min Rain = 0
KHA1 132340Z 05011G16KT 36/21 A299 RMK A01 T03560205  RH  044%=      5-min Rain = 0
KHA1 132345Z 04011KT 36/21 A299 RMK A01 T03560205  RH  044%=      5-min Rain = 0
KHA1 132350Z 04009G14KT 36/21 A299 RMK A01 T03560205  RH  044%=      5-min Rain = 0
KHA1 132355Z 04008KT 36/21 A299 RMK A01 T03550208  RH  045%=      5-min Rain = 0
KHA1 140000Z 07010KT 35/21 A299 RMK A01 T03530207  RH  045%=      5-min Rain = 0
KHA1 140005Z 07009KT 35/21 A2991 RMK A01 T03520207  RH  046%=      5-min Rain = 0
KHA1 140010Z 07010G16KT 35/21 A2991 RMK A01 T03520208  RH  046%=      5-min Rain = 0
KHA1 140015Z 07011KT 35/21 A2991 RMK A01 T03490208  RH  047%=      5-min Rain = 0
KHA1 140020Z 07011G16KT 34/21 A2991 RMK A01 T03440207  RH  048%=      5-min Rain = 0
KHA1 140025Z 08010G15KT 34/21 A2991 RMK A01 T03440208  RH  048%=      5-min Rain = 0
KHA1 140030Z 08011G16KT 34/21 A2992 RMK A01 T03410207  RH  048%=      5-min Rain = 0
KHA1 140035Z 07010KT 34/21 A2992 RMK A01 T03400207  RH  049%=      5-min Rain = 0
KHA1 140040Z 08009G14KT 34/21 A2992 RMK A01 T03390207  RH  049%=      5-min Rain = 0
KHA1 140045Z 07008KT 34/21 A2992 RMK A01 T03380207  RH  049%=      5-min Rain = 0
KHA1 140050Z 07008KT 34/21 A2992 RMK A01 T03380207  RH  049%=      5-min Rain = 0
KHA1 140055Z 07008G13KT 34/21 A2992 RMK A01 T03370208  RH  050%=      5-min Rain = 0
KHA1 140100Z 07008KT 34/21 A2992 RMK A01 T03350208  RH  050%=      5-min Rain = 0
KHA1 140105Z 07007KT 33/21 A2992 RMK A01 T03340208  RH  050%=      5-min Rain = 0
KHA1 140110Z 07009KT 33/21 A2993 RMK A01 T03330207  RH  051%=      5-min Rain = 0
KHA1 140115Z 06008KT 33/21 A2993 RMK A01 T03320207  RH  051%=      5-min Rain = 0
KHA1 140120Z 06008G13KT 33/21 A2993 RMK A01 T03320207  RH  051%=      5-min Rain = 0
KHA1 140125Z 06009G14KT 33/21 A2993 RMK A01 T03320207  RH  051%=      5-min Rain = 0
KHA1 140130Z 05010KT 33/21 A2993 RMK A01 T03310207  RH  051%=      5-min Rain = 0
KHA1 140135Z 05010KT 33/21 A2993 RMK A01 T03300208  RH  052%=      5-min Rain = 0
KHA1 140140Z 05011KT 33/21 A2993 RMK A01 T03290208  RH  052%=      5-min Rain = 0
KHA1 140145Z 05009KT 33/21 A2994 RMK A01 T03280207  RH  052%=      5-min Rain = 0
KHA1 140150Z 05009KT 33/21 A2993 RMK A01 T03270206  RH  052%=      5-min Rain = 0
KHA1 140155Z 04011KT 33/21 A2994 RMK A01 T03260206  RH  052%=      5-min Rain = 0
KHA1 140200Z 04014KT 32/20 A2994 RMK A01 T03220201  RH  052%=      5-min Rain = 0
KHA1 140205Z 04013KT 32/20 A2994 RMK A01 T03200200  RH  052%=      5-min Rain = 0
KHA1 140210Z 05012KT 32/20 A2994 RMK A01 T03180200  RH  052%=      5-min Rain = 0
KHA1 140215Z 05010KT 32/20 A2995 RMK A01 T03180199  RH  052%=      5-min Rain = 0
KHA1 140220Z 05012KT 32/20 A2995 RMK A01 T03170199  RH  052%=      5-min Rain = 0
KHA1 140225Z 04011KT 32/20 A2995 RMK A01 T03180199  RH  052%=      5-min Rain = 0
KHA1 140230Z 04011KT 32/20 A2995 RMK A01 T03170198  RH  052%=      5-min Rain = 0
KHA1 140235Z 04011KT 32/20 A2996 RMK A01 T03170198  RH  052%=      5-min Rain = 0
KHA1 140240Z 04012KT 32/20 A2996 RMK A01 T03170197  RH  052%=      5-min Rain = 0
KHA1 140245Z 04011KT 32/20 A2997 RMK A01 T03180197  RH  052%=      5-min Rain = 0
KHA1 140250Z 04011KT 32/20 A2997 RMK A01 T03170197  RH  052%=      5-min Rain = 0
KHA1 140255Z 03010KT 32/20 A2997 RMK A01 T03160198  RH  052%=      5-min Rain = 0
KHA1 140300Z 04011KT 32/20 A2998 RMK A01 T03160197  RH  052%=      5-min Rain = 0
KHA1 140305Z 05011G16KT 32/20 A2998 RMK A01 T03160197  RH  052%=      5-min Rain = 0
KHA1 140310Z 04012G17KT 32/20 A2998 RMK A01 T03160197  RH  052%=      5-min Rain = 0
KHA1 140315Z 04013KT 32/20 A2998 RMK A01 T03150197  RH  053%=      5-min Rain = 0
KHA1 140320Z 04014G19KT 31/20 A2999 RMK A01 T03140197  RH  053%=      5-min Rain = 0
KHA1 140325Z 04013KT 31/20 A2999 RMK A01 T03130198  RH  054%=      5-min Rain = 0
KHA1 140330Z 04013KT 31/20 A2999 RMK A01 T03120198  RH  054%=      5-min Rain = 0
KHA1 140335Z 04013KT 31/20 A2999 RMK A01 T03100198  RH  054%=      5-min Rain = 0
KHA1 140340Z 04012KT 31/20 A2999 RMK A01 T03090198  RH  055%=      5-min Rain = 0
KHA1 140345Z 04013KT 31/20 A2999 RMK A01 T03080198  RH  055%=      5-min Rain = 0
KHA1 140350Z 05012KT 31/20 A30 RMK A01 T03070198  RH  055%=      5-min Rain = 0
KHA1 140355Z 04013KT 31/20 A30 RMK A01 T03060198  RH  055%=      5-min Rain = 0
KHA1 140400Z 04012KT 31/20 A30 RMK A01 T03060197  RH  055%=      5-min Rain = 0
KHA1 140405Z 04012KT 31/20 A3001 RMK A01 T03050197  RH  056%=      5-min Rain = 0
KHA1 140410Z 05011KT 30/20 A3001 RMK A01 T03040197  RH  056%=      5-min Rain = 0
KHA1 140415Z 04010KT 30/20 A3001 RMK A01 T03040196  RH  056%=      5-min Rain = 0
KHA1 140420Z 05010KT 30/20 A3001 RMK A01 T03030197  RH  056%=      5-min Rain = 0
KHA1 140425Z 05011KT 30/20 A3001 RMK A01 T03020197  RH  056%=      5-min Rain = 0
KHA1 140430Z 04011KT 30/20 A3001 RMK A01 T03010196  RH  057%=      5-min Rain = 0
KHA1 140435Z 05012G17KT 30/20 A3001 RMK A01 T03000197  RH  057%=      5-min Rain = 0
KHA1 140440Z 05010KT 30/20 A3001 RMK A01 T03000196  RH  057%=      5-min Rain = 0
KHA1 140445Z 05010KT 30/20 A3001 RMK A01 T02990196  RH  057%=      5-min Rain = 0
KHA1 140450Z 05009G14KT 30/20 A3001 RMK A01 T02980196  RH  057%=      5-min Rain = 0
KHA1 140455Z 06010KT 30/20 A3001 RMK A01 T02970196  RH  058%=      5-min Rain = 0

Page generated in 0.0093 seconds.